Skip Navigation LinksHome page > Weather > Current weather Skip Navigation Links

Current Weather

Waukegan Regional, Waukegan, Ill.

For information only: do not use for flight planning or navigation.
Latest weather
Observation time Friday, May 14, 2021 6:55 AM CDT
Local time Friday, May 14, 2021 7:26 AM CDT
Flight conditions Visual Meteorological Conditions
Winds
Wind direction West-Southwest (250°)
Wind speed 3 mph
Visibility 10 mi.
Sky condition
Ceiling 10,000 ft. broken clouds
Cloud layer broken clouds 10,000 ft.
Temperature 49°F
Dewpoint 35°F
Altimeter 30.32 in.Hg
Pressure change last 3 hours-0.02 in.Hg
Pressure rising more quickly
Derived measurements
Relative humidity 59%
Wind chill 48°F
Density altitude -295 ft.
Sea-level pressure 30.32 in.Hg
Climate data
Temperature minimum, last 6 hours 40°F
Temperature maximum, last 6 hours 49°F
Remarks
Automated weather observing station with precipitation discriminator.
METAR KUGN 141155Z 25003KT 10SM BKN100 09/02 A3032 RMK AO2 SLP268 T00940017 10094 20044 53008

Settings

Location code

InnerDrive.Weather 4.0.6770.0 Release CLR 4.0.30319.42000
Copyright ©2018 Inner Drive Technology. All rights reserved. Portions Copyright ©1986-2018 David Braverman.

Find weather

Site navigation


Skip Navigation Links

Place info

Page info

PayPal - The safer, easier way to pay online!

Return home.

Copyright ©2021 Inner Drive Technology. Purveyors of fine, hand-crafted computer software. Page printed 2021-05-14T12:26:19 UTC.